createdAt,value
2018-05-01T00:04:48.680Z,8.82
2018-05-01T00:09:51.151Z,9.08
2018-05-01T00:14:53.730Z,8.94
2018-05-01T00:19:56.319Z,8.75
2018-05-01T00:24:58.886Z,8.68
2018-05-01T00:30:01.692Z,8.65
2018-05-01T00:35:04.141Z,8.67
2018-05-01T00:40:06.612Z,8.91
2018-05-01T00:45:09.098Z,9.19
2018-05-01T00:50:11.557Z,9.52
2018-05-01T00:55:14.034Z,9.83
2018-05-01T01:00:16.612Z,10.37
2018-05-01T01:05:19.075Z,10.55
2018-05-01T01:10:21.553Z,10.63
2018-05-01T01:15:24.068Z,10.56
2018-05-01T01:20:26.543Z,10.50
2018-05-01T01:25:29.137Z,10.67
2018-05-01T01:30:31.614Z,10.97
2018-05-01T01:35:33.546Z,11.13
2018-05-01T01:40:35.496Z,11.32
2018-05-01T01:45:37.453Z,11.56
2018-05-01T01:50:39.378Z,11.68
2018-05-01T01:55:42.008Z,11.80
2018-05-01T02:00:43.980Z,11.98
2018-05-01T02:05:45.922Z,11.99
2018-05-01T02:10:47.884Z,11.91
2018-05-01T02:15:49.849Z,11.73
2018-05-01T02:20:51.839Z,11.53
2018-05-01T02:25:53.842Z,11.61
2018-05-01T02:30:55.776Z,11.50
2018-05-01T02:35:57.727Z,11.55
2018-05-01T02:40:59.667Z,11.59
2018-05-01T02:46:01.600Z,11.52
2018-05-01T02:51:03.524Z,11.53
2018-05-01T02:56:05.452Z,11.42
2018-05-01T03:01:07.388Z,11.21
2018-05-01T03:06:09.322Z,11.05
2018-05-01T03:11:11.239Z,10.98
2018-05-01T03:16:13.170Z,10.92
2018-05-01T03:21:15.109Z,10.97
2018-05-01T03:26:17.054Z,11.01
2018-05-01T03:31:18.977Z,11.66
2018-05-01T03:36:20.969Z,11.93
2018-05-01T03:41:22.944Z,12.07
2018-05-01T03:46:25.010Z,12.12
2018-05-01T03:51:26.977Z,12.14
2018-05-01T03:56:28.957Z,12.10
2018-05-01T04:01:30.877Z,12.02
2018-05-01T04:06:32.809Z,11.95
2018-05-01T04:11:34.759Z,11.87
2018-05-01T04:16:36.694Z,12.13
2018-05-01T04:21:38.615Z,12.45
2018-05-01T04:26:40.572Z,12.72
2018-05-01T04:31:42.506Z,12.98
2018-05-01T04:36:44.493Z,13.03
2018-05-01T04:41:46.426Z,13.20
2018-05-01T04:46:48.349Z,13.40
2018-05-01T04:51:50.602Z,13.41
2018-05-01T04:56:52.522Z,13.26
2018-05-01T05:01:54.520Z,13.10
2018-05-01T05:06:56.522Z,13.08
2018-05-01T05:11:58.498Z,12.97
2018-05-01T05:17:00.433Z,13.01
2018-05-01T05:22:02.404Z,13.28
2018-05-01T05:27:04.336Z,13.82
2018-05-01T05:32:06.269Z,15.62
2018-05-01T05:37:08.309Z,18.62
2018-05-01T05:42:10.245Z,22.25
2018-05-01T05:47:12.175Z,23.82
2018-05-01T05:52:14.112Z,24.08
2018-05-01T05:57:16.078Z,23.91
2018-05-01T06:02:18.094Z,23.24
2018-05-01T06:07:20.057Z,25.19
2018-05-01T06:12:22.028Z,23.45
2018-05-01T06:17:24.021Z,24.22
2018-05-01T06:22:26.859Z,24.33
2018-05-01T06:27:28.852Z,25.42
2018-05-01T06:32:30.801Z,23.80
2018-05-01T06:37:32.772Z,22.43
2018-05-01T06:42:34.652Z,20.30
2018-05-01T06:47:36.586Z,19.28
2018-05-01T06:52:38.513Z,18.32
2018-05-01T06:57:40.439Z,18.06
2018-05-01T07:02:42.349Z,17.48
2018-05-01T07:07:44.370Z,17.81
2018-05-01T07:12:46.282Z,17.12
2018-05-01T07:17:48.184Z,17.08
2018-05-01T07:22:50.942Z,16.14
2018-05-01T07:27:52.926Z,16.08
2018-05-01T07:32:54.916Z,16.29
2018-05-01T07:37:56.875Z,15.83
2018-05-01T07:42:58.912Z,16.68
2018-05-01T07:48:00.859Z,16.81
2018-05-01T07:53:02.789Z,15.97
2018-05-01T07:58:04.803Z,15.06
2018-05-01T08:03:06.711Z,14.71
2018-05-01T08:08:08.652Z,14.66
2018-05-01T08:13:10.721Z,15.37
2018-05-01T08:18:12.642Z,15.49
2018-05-01T08:23:14.572Z,15.81
2018-05-01T08:28:16.508Z,15.81
2018-05-01T08:33:18.564Z,15.64
2018-05-01T08:38:20.720Z,15.79
2018-05-01T08:43:22.676Z,15.93
2018-05-01T08:48:24.666Z,16.44
2018-05-01T08:53:26.630Z,16.83
2018-05-01T08:58:28.582Z,17.20
2018-05-01T09:03:30.551Z,16.11
2018-05-01T09:08:32.556Z,16.67
2018-05-01T09:13:34.599Z,16.84
2018-05-01T09:18:36.543Z,17.96
2018-05-01T09:23:38.581Z,20.08
2018-05-01T09:28:40.495Z,20.61
2018-05-01T09:33:42.403Z,20.85
2018-05-01T09:38:44.334Z,20.22
2018-05-01T09:43:46.343Z,20.31
2018-05-01T09:48:48.265Z,20.22
2018-05-01T09:53:50.754Z,21.17
2018-05-01T09:58:53.319Z,21.47
2018-05-01T10:03:55.791Z,20.85
2018-05-01T10:08:58.256Z,19.97
2018-05-01T10:14:00.739Z,19.95
2018-05-01T10:19:03.254Z,20.54
2018-05-01T10:24:05.708Z,20.48
2018-05-01T10:29:08.161Z,20.98
2018-05-01T10:34:10.633Z,20.40
2018-05-01T10:39:13.119Z,20.46
2018-05-01T10:44:15.687Z,19.89
2018-05-01T10:49:18.153Z,20.08
2018-05-01T10:54:20.618Z,20.73
2018-05-01T10:59:23.098Z,20.58
2018-05-01T11:04:31.938Z,19.73
2018-05-01T11:09:39.022Z,20.11
2018-05-01T11:14:41.899Z,19.29
2018-05-01T11:19:44.525Z,19.43
2018-05-01T11:24:46.986Z,19.15
2018-05-01T11:29:49.439Z,19.07
2018-05-01T11:34:51.924Z,18.97
2018-05-01T11:39:54.418Z,19.24
2018-05-01T11:44:57.420Z,19.16
2018-05-01T11:50:00.110Z,19.83
2018-05-01T11:55:02.707Z,19.72
2018-05-01T12:00:05.192Z,19.28
2018-05-01T12:05:08.134Z,18.64
2018-05-01T12:10:10.928Z,18.11
2018-05-01T12:15:13.391Z,18.54
2018-05-01T12:20:15.839Z,17.86
2018-05-01T12:25:18.404Z,18.90
2018-05-01T12:30:20.911Z,17.35
2018-05-01T12:35:23.424Z,18.27
2018-05-01T12:40:25.922Z,18.61
2018-05-01T12:45:28.754Z,18.59
2018-05-01T12:50:31.258Z,18.88
2018-05-01T12:55:33.721Z,18.04
2018-05-01T13:00:36.196Z,18.05
2018-05-01T13:05:38.738Z,18.38
2018-05-01T13:10:41.188Z,18.31
2018-05-01T13:15:43.720Z,18.86
2018-05-01T13:20:46.190Z,19.65
2018-05-01T13:25:48.660Z,19.20
2018-05-01T13:30:51.119Z,18.39
2018-05-01T13:35:53.598Z,17.55
2018-05-01T13:40:56.127Z,18.45
2018-05-01T13:45:58.614Z,18.78
2018-05-01T13:51:01.079Z,19.05
2018-05-01T13:56:03.535Z,19.20
2018-05-01T14:01:06.012Z,19.31
2018-05-01T14:06:08.484Z,18.64
2018-05-01T14:11:10.938Z,18.37
2018-05-01T14:16:13.425Z,18.21
2018-05-01T14:21:15.882Z,18.39
2018-05-01T14:26:18.353Z,18.58
2018-05-01T14:31:20.826Z,18.39
2018-05-01T14:36:23.311Z,18.35
2018-05-01T14:41:25.788Z,18.57
2018-05-01T14:46:28.462Z,17.61
2018-05-01T14:51:31.628Z,17.94
2018-05-01T14:56:34.253Z,17.93
2018-05-01T15:01:36.949Z,17.03
2018-05-01T15:06:39.506Z,17.97
2018-05-01T15:11:41.984Z,17.60
2018-05-01T15:16:44.456Z,17.91
2018-05-01T15:21:46.903Z,17.25
2018-05-01T15:26:49.389Z,18.11
2018-05-01T15:31:51.863Z,17.91
2018-05-01T15:36:54.339Z,17.50
2018-05-01T15:41:56.847Z,18.06
2018-05-01T15:46:59.356Z,17.72
2018-05-01T15:52:01.829Z,17.90
2018-05-01T15:57:04.286Z,17.78
2018-05-01T16:02:06.742Z,18.29
2018-05-01T16:07:09.200Z,18.25
2018-05-01T16:12:11.676Z,18.53
2018-05-01T16:17:15.372Z,18.86
2018-05-01T16:22:17.837Z,18.42
2018-05-01T16:27:23.249Z,17.85
2018-05-01T16:32:25.725Z,18.21
2018-05-01T16:37:28.218Z,17.81
2018-05-01T16:42:31.136Z,17.87
2018-05-01T16:47:33.618Z,17.77
2018-05-01T16:52:46.606Z,17.58
2018-05-01T16:57:58.015Z,17.34
2018-05-01T17:03:00.868Z,17.70
2018-05-01T17:08:03.369Z,17.64
2018-05-01T17:13:05.824Z,17.44
2018-05-01T17:18:08.513Z,17.14
2018-05-01T17:23:10.970Z,16.00
2018-05-01T17:28:13.446Z,15.84
2018-05-01T17:33:15.915Z,15.82
2018-05-01T17:38:18.403Z,15.70
2018-05-01T17:43:20.947Z,15.39
2018-05-01T17:48:23.433Z,15.23
2018-05-01T17:53:25.921Z,14.97
2018-05-01T17:58:28.402Z,14.68
2018-05-01T18:03:30.948Z,14.29
2018-05-01T18:08:33.420Z,14.01
2018-05-01T18:13:35.990Z,13.71
2018-05-01T18:18:38.440Z,13.37
2018-05-01T18:23:40.923Z,13.07
2018-05-01T18:28:43.371Z,12.82
2018-05-01T18:33:45.973Z,12.62
2018-05-01T18:38:48.461Z,12.35
2018-05-01T18:43:50.932Z,12.14
2018-05-01T18:48:54.040Z,11.99
2018-05-01T18:53:56.572Z,11.79
2018-05-01T18:59:00.474Z,11.28
2018-05-01T19:04:03.167Z,10.79
2018-05-01T19:09:06.581Z,10.54
2018-05-01T19:14:10.866Z,10.09
2018-05-01T19:19:13.376Z,9.76
2018-05-01T19:29:43.171Z,9.11
2018-05-01T19:34:45.672Z,9.02
2018-05-01T19:39:48.197Z,9.10
2018-05-01T19:44:50.751Z,8.79
2018-05-01T19:49:53.249Z,8.63
2018-05-01T19:54:55.821Z,8.41
2018-05-01T19:59:58.348Z,8.37
2018-05-01T20:05:00.866Z,8.05
2018-05-01T20:10:03.356Z,7.76
2018-05-01T20:15:05.776Z,7.86
2018-05-01T20:20:08.239Z,7.63
2018-05-01T20:25:10.749Z,7.54
2018-05-01T20:30:13.214Z,7.26
2018-05-01T20:35:16.224Z,7.05
2018-05-01T20:40:18.822Z,6.98
2018-05-01T20:45:21.325Z,6.90
2018-05-01T20:50:26.755Z,6.72
2018-05-01T20:55:31.409Z,6.58
2018-05-01T21:00:34.037Z,6.60
2018-05-01T21:05:36.518Z,6.48
2018-05-01T21:10:39.215Z,6.15
2018-05-01T21:15:41.777Z,5.97
2018-05-01T21:20:44.237Z,5.94
2018-05-01T21:25:46.698Z,5.77
2018-05-01T21:30:49.161Z,5.62
2018-05-01T21:35:51.620Z,5.56
2018-05-01T21:40:54.077Z,5.44
2018-05-01T21:45:56.701Z,5.41
2018-05-01T21:50:59.148Z,5.05
2018-05-01T21:56:01.727Z,4.80
2018-05-01T22:01:04.219Z,4.64
2018-05-01T22:06:06.691Z,4.53
2018-05-01T22:11:09.210Z,4.42
2018-05-01T22:16:11.705Z,4.38
2018-05-01T22:21:14.172Z,4.33
2018-05-01T22:26:16.736Z,4.23
2018-05-01T22:31:19.185Z,4.13
2018-05-01T22:36:21.677Z,4.01
2018-05-01T22:41:24.118Z,3.94
2018-05-01T22:46:26.627Z,3.88
2018-05-01T22:51:29.206Z,3.87
2018-05-01T22:56:31.671Z,3.79
2018-05-01T23:01:34.175Z,3.77
2018-05-01T23:06:37.585Z,3.71
2018-05-01T23:11:40.056Z,3.77
2018-05-01T23:16:42.637Z,3.62
2018-05-01T23:21:45.078Z,3.53
2018-05-01T23:26:47.545Z,3.49
2018-05-01T23:31:50.022Z,3.45
2018-05-01T23:36:52.527Z,3.39
2018-05-01T23:41:54.985Z,3.33
2018-05-01T23:46:57.445Z,3.44
2018-05-01T23:51:59.921Z,3.40
2018-05-01T23:57:02.420Z,3.32
